createdAt,value
2023-01-09T00:00:32.974Z,4.00
2023-01-09T00:02:59.668Z,3.98
2023-01-09T00:05:26.928Z,3.90
2023-01-09T00:07:53.832Z,3.78
2023-01-09T00:10:20.597Z,3.76
2023-01-09T00:12:47.371Z,3.77
2023-01-09T00:15:13.982Z,3.78
2023-01-09T00:17:41.219Z,3.80
2023-01-09T00:20:10.134Z,3.83
2023-01-09T00:22:37.877Z,3.81
2023-01-09T00:25:05.217Z,3.81
2023-01-09T00:27:34.005Z,3.78
2023-01-09T00:30:01.111Z,3.71
2023-01-09T00:32:28.593Z,3.77
2023-01-09T00:34:55.965Z,3.74
2023-01-09T00:37:22.985Z,3.77
2023-01-09T00:39:49.612Z,3.79
2023-01-09T00:42:23.882Z,3.78
2023-01-09T00:44:59.373Z,3.74
2023-01-09T00:47:30.965Z,3.74
2023-01-09T00:50:06.602Z,3.72
2023-01-09T00:52:35.929Z,3.74
2023-01-09T00:55:03.493Z,3.76
2023-01-09T00:57:30.894Z,3.73
2023-01-09T00:59:58.516Z,3.76
2023-01-09T01:02:25.529Z,3.78
2023-01-09T01:05:10.914Z,3.85
2023-01-09T01:07:40.181Z,3.82
2023-01-09T01:10:13.085Z,3.80
2023-01-09T01:12:40.282Z,3.78
2023-01-09T01:15:08.291Z,3.79
2023-01-09T01:17:39.118Z,3.81
2023-01-09T01:20:08.057Z,3.83
2023-01-09T01:22:34.913Z,3.82
2023-01-09T01:25:02.044Z,3.79
2023-01-09T01:27:29.157Z,3.81
2023-01-09T01:29:56.521Z,3.83
2023-01-09T01:32:24.311Z,3.81
2023-01-09T01:34:51.002Z,3.80
2023-01-09T01:37:17.685Z,3.79
2023-01-09T01:39:44.397Z,3.80
2023-01-09T01:42:15.043Z,3.79
2023-01-09T01:45:00.512Z,3.81
2023-01-09T01:47:29.817Z,3.76
2023-01-09T01:49:56.908Z,3.79
2023-01-09T01:52:25.241Z,3.79
2023-01-09T01:54:52.793Z,3.75
2023-01-09T01:57:19.685Z,3.78
2023-01-09T01:59:51.081Z,3.74
2023-01-09T02:02:21.138Z,3.71
2023-01-09T02:04:48.908Z,3.68
2023-01-09T02:07:15.553Z,3.68
2023-01-09T02:09:44.635Z,3.65
2023-01-09T02:12:23.603Z,3.60
2023-01-09T02:14:55.557Z,3.61
2023-01-09T02:17:33.716Z,3.61
2023-01-09T02:20:24.549Z,3.63
2023-01-09T02:22:51.129Z,3.62
2023-01-09T02:26:01.864Z,3.62
2023-01-09T02:28:31.206Z,3.66
2023-01-09T02:31:28.482Z,3.70
2023-01-09T02:34:04.412Z,3.64
2023-01-09T02:36:40.881Z,3.66
2023-01-09T02:39:23.916Z,3.66
2023-01-09T02:41:53.230Z,3.65
2023-01-09T02:44:29.287Z,3.62
2023-01-09T02:47:27.922Z,3.60
2023-01-09T02:50:01.094Z,3.59
2023-01-09T02:52:52.631Z,3.59
2023-01-09T02:55:43.856Z,3.56
2023-01-09T02:58:30.670Z,3.57
2023-01-09T03:01:48.154Z,3.58
2023-01-09T03:04:41.423Z,3.55
2023-01-09T03:07:14.446Z,3.52
2023-01-09T03:09:43.384Z,3.53
2023-01-09T03:12:37.338Z,3.49
2023-01-09T03:15:06.787Z,3.55
2023-01-09T03:17:40.331Z,3.52
2023-01-09T03:20:10.565Z,3.59
2023-01-09T03:22:40.039Z,3.62
2023-01-09T03:25:07.026Z,3.67
2023-01-09T03:27:33.860Z,3.61
2023-01-09T03:30:00.489Z,3.61
2023-01-09T03:32:27.947Z,3.62
2023-01-09T03:34:54.622Z,3.64
2023-01-09T03:37:21.239Z,3.65
2023-01-09T03:39:47.883Z,3.67
2023-01-09T03:42:14.505Z,3.72
2023-01-09T03:44:41.175Z,3.73
2023-01-09T03:47:07.816Z,3.71
2023-01-09T03:49:34.571Z,3.75
2023-01-09T03:52:01.327Z,3.73
2023-01-09T03:54:27.956Z,3.74
2023-01-09T03:56:54.563Z,3.76
2023-01-09T03:59:21.234Z,3.77
2023-01-09T04:01:48.072Z,3.78
2023-01-09T04:04:14.778Z,3.76
2023-01-09T04:06:41.400Z,3.77
2023-01-09T04:09:08.043Z,3.75
2023-01-09T04:11:34.688Z,3.75
2023-01-09T04:14:01.352Z,3.77
2023-01-09T04:16:27.973Z,3.80
2023-01-09T04:18:54.713Z,3.82
2023-01-09T04:21:21.381Z,3.81
2023-01-09T04:23:48.029Z,3.77
2023-01-09T04:26:14.724Z,3.77
2023-01-09T04:28:41.355Z,3.77
2023-01-09T04:31:07.970Z,3.76
2023-01-09T04:33:34.860Z,3.64
2023-01-09T04:36:01.596Z,3.55
2023-01-09T04:38:28.332Z,3.46
2023-01-09T04:40:54.934Z,3.52
2023-01-09T04:43:21.732Z,3.54
2023-01-09T04:45:48.453Z,3.51
2023-01-09T04:48:15.096Z,3.51
2023-01-09T04:50:41.750Z,3.48
2023-01-09T04:53:08.739Z,3.48
2023-01-09T04:55:35.424Z,3.49
2023-01-09T04:58:02.089Z,3.47
2023-01-09T05:00:28.687Z,3.48
2023-01-09T05:02:55.476Z,3.41
2023-01-09T05:05:22.088Z,3.43
2023-01-09T05:07:48.690Z,3.42
2023-01-09T05:10:15.503Z,3.39
2023-01-09T05:12:42.138Z,3.37
2023-01-09T05:15:09.636Z,3.35
2023-01-09T05:17:36.262Z,3.37
2023-01-09T05:20:03.096Z,3.40
2023-01-09T05:22:30.459Z,3.41
2023-01-09T05:24:58.509Z,3.41
2023-01-09T05:27:27.321Z,3.43
2023-01-09T05:29:53.926Z,3.43
2023-01-09T05:32:20.576Z,3.47
2023-01-09T05:34:47.222Z,3.45
2023-01-09T05:37:13.845Z,3.49
2023-01-09T05:39:40.494Z,3.52
2023-01-09T05:42:07.161Z,3.53
2023-01-09T05:44:33.795Z,3.63
2023-01-09T05:47:02.671Z,3.63
2023-01-09T05:49:29.489Z,3.63
2023-01-09T05:51:56.082Z,3.61
2023-01-09T05:54:22.825Z,3.61
2023-01-09T05:56:49.453Z,3.60
2023-01-09T05:59:16.098Z,3.62
2023-01-09T06:01:42.797Z,3.69
2023-01-09T06:04:09.451Z,3.69
2023-01-09T06:06:36.043Z,3.74
2023-01-09T06:09:03.639Z,3.74
2023-01-09T06:11:30.302Z,3.73
2023-01-09T06:13:57.008Z,3.73
2023-01-09T06:16:23.742Z,3.74
2023-01-09T06:18:50.641Z,3.74
2023-01-09T06:21:17.267Z,3.77
2023-01-09T06:23:43.863Z,3.80
2023-01-09T06:26:10.653Z,3.90
2023-01-09T06:28:37.312Z,3.97
2023-01-09T06:31:04.061Z,4.02
2023-01-09T06:33:32.434Z,4.11
2023-01-09T06:35:59.245Z,4.14
2023-01-09T06:38:25.937Z,4.19
2023-01-09T06:40:52.538Z,4.22
2023-01-09T06:43:19.162Z,4.29
2023-01-09T06:45:45.755Z,4.30
2023-01-09T06:48:13.057Z,4.31
2023-01-09T06:50:39.795Z,4.32
2023-01-09T06:53:06.764Z,4.31
2023-01-09T06:55:33.521Z,4.35
2023-01-09T06:58:00.152Z,4.36
2023-01-09T07:00:27.325Z,4.36
2023-01-09T07:02:53.949Z,4.32
2023-01-09T07:05:20.580Z,4.27
2023-01-09T07:07:47.187Z,4.27
2023-01-09T07:10:15.089Z,4.28
2023-01-09T07:12:41.759Z,4.31
2023-01-09T07:15:09.160Z,4.36
2023-01-09T07:17:35.921Z,4.41
2023-01-09T07:20:02.667Z,4.45
2023-01-09T07:22:29.322Z,4.50
2023-01-09T07:24:56.015Z,4.53
2023-01-09T07:27:22.746Z,4.58
2023-01-09T07:29:50.252Z,4.62
2023-01-09T07:32:17.579Z,4.64
2023-01-09T07:34:44.173Z,4.66
2023-01-09T07:37:10.815Z,4.67
2023-01-09T07:39:37.478Z,4.67
2023-01-09T07:42:04.224Z,4.69
2023-01-09T07:44:30.865Z,4.69
2023-01-09T07:46:57.449Z,4.71
2023-01-09T07:49:26.075Z,4.74
2023-01-09T07:51:55.249Z,4.75
2023-01-09T07:54:22.226Z,4.79
2023-01-09T07:56:48.848Z,4.81
2023-01-09T07:59:15.466Z,4.79
2023-01-09T08:01:42.191Z,4.82
2023-01-09T08:04:08.893Z,4.80
2023-01-09T08:06:35.673Z,4.81
2023-01-09T08:09:02.399Z,4.85
2023-01-09T08:11:29.192Z,4.86
2023-01-09T08:13:55.954Z,4.89
2023-01-09T08:16:22.665Z,4.91
2023-01-09T08:18:49.292Z,4.94
2023-01-09T08:21:16.762Z,4.98
2023-01-09T08:23:45.543Z,5.04
2023-01-09T08:26:12.691Z,5.03
2023-01-09T08:28:39.541Z,5.05
2023-01-09T08:31:06.429Z,5.09
2023-01-09T08:33:33.166Z,5.06
2023-01-09T08:35:59.887Z,5.07
2023-01-09T08:38:26.498Z,5.05
2023-01-09T08:40:53.181Z,5.07
2023-01-09T08:43:38.057Z,5.00
2023-01-09T08:46:24.515Z,4.93
2023-01-09T08:48:51.203Z,4.94
2023-01-09T08:51:18.679Z,4.95
2023-01-09T08:53:46.524Z,4.96
2023-01-09T08:56:13.486Z,5.01
2023-01-09T08:58:40.168Z,5.04
2023-01-09T09:01:08.207Z,5.02
2023-01-09T09:03:34.893Z,4.98
2023-01-09T09:06:01.669Z,4.96
2023-01-09T09:08:28.402Z,4.97
2023-01-09T09:10:55.062Z,4.92
2023-01-09T09:13:21.758Z,4.87
2023-01-09T09:15:48.398Z,4.83
2023-01-09T09:18:15.121Z,4.76
2023-01-09T09:20:41.789Z,4.78
2023-01-09T09:23:09.135Z,4.80
2023-01-09T09:25:38.375Z,4.80
2023-01-09T09:28:06.058Z,4.81
2023-01-09T09:30:33.362Z,4.84
2023-01-09T09:33:03.711Z,4.88
2023-01-09T09:35:32.474Z,4.95
2023-01-09T09:38:04.977Z,4.98
2023-01-09T09:41:00.756Z,5.00
2023-01-09T09:44:07.576Z,5.04
2023-01-09T09:46:48.376Z,5.07
2023-01-09T09:49:31.311Z,5.15
2023-01-09T09:52:13.972Z,5.28
2023-01-09T09:54:47.908Z,5.38
2023-01-09T09:57:20.300Z,5.49
2023-01-09T09:59:51.438Z,5.55
2023-01-09T10:02:32.996Z,5.64
2023-01-09T10:05:08.402Z,5.69
2023-01-09T10:07:46.647Z,5.77
2023-01-09T10:10:28.370Z,5.85
2023-01-09T10:12:58.328Z,5.96
2023-01-09T10:15:46.585Z,6.08
2023-01-09T10:18:43.185Z,6.19
2023-01-09T10:21:21.562Z,6.19
2023-01-09T10:24:39.359Z,6.23
2023-01-09T10:27:43.125Z,6.27
2023-01-09T10:30:38.223Z,6.10
2023-01-09T10:33:46.983Z,5.72
2023-01-09T10:36:32.032Z,5.51
2023-01-09T10:39:04.470Z,5.41
2023-01-09T10:41:40.560Z,5.31
2023-01-09T10:44:45.826Z,5.39
2023-01-09T10:47:43.359Z,5.48
2023-01-09T10:50:24.261Z,5.56
2023-01-09T10:52:53.657Z,5.55
2023-01-09T10:55:41.136Z,5.58
2023-01-09T10:58:13.395Z,5.68
2023-01-09T11:00:41.703Z,5.71
2023-01-09T11:03:16.396Z,5.78
2023-01-09T11:05:43.334Z,5.81
2023-01-09T11:08:11.556Z,5.83
2023-01-09T11:10:47.974Z,5.84
2023-01-09T11:13:19.991Z,5.82
2023-01-09T11:15:58.806Z,5.79
2023-01-09T11:18:26.325Z,5.74
2023-01-09T11:20:53.285Z,5.71
2023-01-09T11:23:26.834Z,5.65
2023-01-09T11:25:55.677Z,5.70
2023-01-09T11:28:22.342Z,5.66
2023-01-09T11:30:59.820Z,5.70
2023-01-09T11:33:37.347Z,5.76
2023-01-09T11:36:08.741Z,5.73
2023-01-09T11:38:50.970Z,5.75
2023-01-09T11:41:26.475Z,5.75
2023-01-09T11:43:57.655Z,5.77
2023-01-09T11:46:41.948Z,5.80
2023-01-09T11:49:25.054Z,5.74
2023-01-09T11:52:25.980Z,5.77
2023-01-09T11:54:59.505Z,5.75
2023-01-09T11:57:27.374Z,5.77
2023-01-09T12:00:04.466Z,5.77
2023-01-09T12:03:09.703Z,5.85
2023-01-09T12:06:00.058Z,5.91
2023-01-09T12:08:47.769Z,6.03
2023-01-09T12:11:39.367Z,6.12
2023-01-09T12:14:17.470Z,6.13
2023-01-09T12:16:59.027Z,6.17
2023-01-09T12:19:28.546Z,6.15
2023-01-09T12:22:26.789Z,6.17
2023-01-09T12:25:11.810Z,6.19
2023-01-09T12:27:53.540Z,6.30
2023-01-09T12:30:38.993Z,6.39
2023-01-09T12:33:23.231Z,6.48
2023-01-09T12:36:02.845Z,6.51
2023-01-09T12:38:35.327Z,6.43
2023-01-09T12:41:26.280Z,6.50
2023-01-09T12:44:34.109Z,6.40
2023-01-09T12:47:06.983Z,6.49
2023-01-09T12:49:39.007Z,6.50
2023-01-09T12:52:32.049Z,6.49
2023-01-09T12:55:13.241Z,6.44
2023-01-09T12:57:46.362Z,6.46
2023-01-09T13:00:19.223Z,6.50
2023-01-09T13:03:00.641Z,6.53
2023-01-09T13:05:44.737Z,6.53
2023-01-09T13:08:29.544Z,6.47
2023-01-09T13:11:11.570Z,6.47
2023-01-09T13:13:54.095Z,6.49
2023-01-09T13:16:28.387Z,6.49
2023-01-09T13:19:11.225Z,6.44
2023-01-09T13:21:42.224Z,6.41
2023-01-09T13:24:24.950Z,6.45
2023-01-09T13:27:00.015Z,6.47
2023-01-09T13:29:42.425Z,6.52
2023-01-09T13:32:18.149Z,6.54
2023-01-09T13:34:49.503Z,6.67
2023-01-09T13:37:30.787Z,6.73
2023-01-09T13:40:06.973Z,6.81
2023-01-09T13:42:36.750Z,6.75
2023-01-09T13:45:20.471Z,6.80
2023-01-09T13:47:47.576Z,6.74
2023-01-09T13:50:27.728Z,6.77
2023-01-09T13:52:54.408Z,6.79
2023-01-09T13:55:25.803Z,6.78
2023-01-09T13:58:05.559Z,6.78
2023-01-09T14:00:34.950Z,6.76
2023-01-09T14:03:20.952Z,6.73
2023-01-09T14:05:47.505Z,6.77
2023-01-09T14:08:22.900Z,6.76
2023-01-09T14:10:52.481Z,6.63
2023-01-09T14:13:25.280Z,6.59
2023-01-09T14:16:02.536Z,6.55
2023-01-09T14:18:35.678Z,6.60
2023-01-09T14:21:10.291Z,6.58
2023-01-09T14:23:53.339Z,6.53
2023-01-09T14:26:24.610Z,6.49
2023-01-09T14:28:51.953Z,6.48
2023-01-09T14:31:33.715Z,6.54
2023-01-09T14:34:35.550Z,6.53
2023-01-09T14:37:02.953Z,6.53
2023-01-09T14:39:32.503Z,6.52
2023-01-09T14:42:09.184Z,6.60
2023-01-09T14:44:58.717Z,6.61
2023-01-09T14:47:31.520Z,6.51
2023-01-09T14:50:04.154Z,6.45
2023-01-09T14:53:04.694Z,6.47
2023-01-09T14:55:37.358Z,6.43
2023-01-09T14:58:11.217Z,6.20
2023-01-09T15:00:47.559Z,6.21
2023-01-09T15:03:14.964Z,6.13
2023-01-09T15:05:45.724Z,6.05
2023-01-09T15:08:18.221Z,6.01
2023-01-09T15:10:47.713Z,5.99
2023-01-09T15:13:19.523Z,6.00
2023-01-09T15:15:48.603Z,5.94
2023-01-09T15:18:31.939Z,5.85
2023-01-09T15:21:02.540Z,5.75
2023-01-09T15:23:31.055Z,5.67
2023-01-09T15:26:24.784Z,5.70
2023-01-09T15:28:53.893Z,5.68
2023-01-09T15:31:24.276Z,5.70
2023-01-09T15:33:53.943Z,5.65
2023-01-09T15:36:31.113Z,5.62
2023-01-09T15:38:59.433Z,5.59
2023-01-09T15:41:47.435Z,5.60
2023-01-09T15:44:27.354Z,5.56
2023-01-09T15:46:59.551Z,5.56
2023-01-09T15:49:26.512Z,5.59
2023-01-09T15:51:54.340Z,5.65
2023-01-09T15:54:29.379Z,5.64
2023-01-09T15:57:24.912Z,5.60
2023-01-09T15:59:56.532Z,5.65
2023-01-09T16:02:42.965Z,5.66
2023-01-09T16:05:16.540Z,5.60
2023-01-09T16:07:51.239Z,5.52
2023-01-09T16:10:23.850Z,5.45
2023-01-09T16:12:52.728Z,5.42
2023-01-09T16:15:20.682Z,5.39
2023-01-09T16:18:05.883Z,5.41
2023-01-09T16:20:32.572Z,5.45
2023-01-09T16:23:01.372Z,5.39
2023-01-09T16:25:32.162Z,5.37
2023-01-09T16:28:26.974Z,5.29
2023-01-09T16:30:58.186Z,5.30
2023-01-09T16:33:27.633Z,5.29
2023-01-09T16:35:54.999Z,5.25
2023-01-09T16:38:22.805Z,5.19
2023-01-09T16:41:18.415Z,5.05
2023-01-09T16:43:45.987Z,5.09
2023-01-09T16:46:15.284Z,5.10
2023-01-09T16:48:42.937Z,5.12
2023-01-09T16:51:18.869Z,5.14
2023-01-09T16:53:45.778Z,5.20
2023-01-09T16:56:23.486Z,5.23
2023-01-09T16:58:50.737Z,5.25
2023-01-09T17:01:18.335Z,5.24
2023-01-09T17:03:45.216Z,5.26
2023-01-09T17:06:32.825Z,5.25
2023-01-09T17:09:02.888Z,5.27
2023-01-09T17:11:32.091Z,5.31
2023-01-09T17:14:02.397Z,5.35
2023-01-09T17:16:30.085Z,5.43
2023-01-09T17:18:56.924Z,5.43
2023-01-09T17:21:27.041Z,5.37
2023-01-09T17:24:12.236Z,5.28
2023-01-09T17:27:00.064Z,5.27
2023-01-09T17:29:27.849Z,5.21
2023-01-09T17:31:54.915Z,5.14
2023-01-09T17:34:21.640Z,5.12
2023-01-09T17:36:48.364Z,5.14
2023-01-09T17:39:17.195Z,5.14
2023-01-09T17:41:44.251Z,5.14
2023-01-09T17:44:12.040Z,5.13
2023-01-09T17:46:41.364Z,5.04
2023-01-09T17:49:16.739Z,5.00
2023-01-09T17:51:43.837Z,4.98
2023-01-09T17:54:10.922Z,4.89
2023-01-09T17:56:39.443Z,4.81
2023-01-09T17:59:10.137Z,4.80
2023-01-09T18:01:36.858Z,4.81
2023-01-09T18:04:03.517Z,4.79
2023-01-09T18:06:30.158Z,4.75
2023-01-09T18:08:58.195Z,4.72
2023-01-09T18:11:25.133Z,4.68
2023-01-09T18:13:54.356Z,4.58
2023-01-09T18:16:24.470Z,4.57
2023-01-09T18:18:54.153Z,4.54
2023-01-09T18:21:24.606Z,4.48
2023-01-09T18:23:51.463Z,4.46
2023-01-09T18:26:20.943Z,4.44
2023-01-09T18:28:55.162Z,4.46
2023-01-09T18:31:24.474Z,4.42
2023-01-09T18:33:52.548Z,4.41
2023-01-09T18:36:22.298Z,4.37
2023-01-09T18:38:53.392Z,4.35
2023-01-09T18:41:21.413Z,4.23
2023-01-09T18:43:53.638Z,4.21
2023-01-09T18:46:24.634Z,4.16
2023-01-09T18:48:55.839Z,4.14
2023-01-09T18:51:23.988Z,4.12
2023-01-09T18:53:51.487Z,4.09
2023-01-09T18:56:20.111Z,4.07
2023-01-09T18:58:50.111Z,4.06
2023-01-09T19:01:17.114Z,4.02
2023-01-09T19:03:45.221Z,4.03
2023-01-09T19:06:12.214Z,4.06
2023-01-09T19:08:39.044Z,4.01
2023-01-09T19:11:06.199Z,3.98
2023-01-09T19:13:35.559Z,3.98
2023-01-09T19:16:03.965Z,3.94
2023-01-09T19:18:34.689Z,3.94
2023-01-09T19:21:02.099Z,3.87
2023-01-09T19:23:28.860Z,3.88
2023-01-09T19:25:57.712Z,3.88
2023-01-09T19:28:24.517Z,3.82
2023-01-09T19:30:56.802Z,3.87
2023-01-09T19:33:25.343Z,3.89
2023-01-09T19:35:53.272Z,3.91
2023-01-09T19:38:22.645Z,3.90
2023-01-09T19:40:49.589Z,3.91
2023-01-09T19:43:25.987Z,3.90
2023-01-09T19:45:56.441Z,3.87
2023-01-09T19:48:24.527Z,3.89
2023-01-09T19:50:51.214Z,3.86
2023-01-09T19:53:18.445Z,3.89
2023-01-09T19:55:45.114Z,3.92
2023-01-09T19:58:11.761Z,3.91
2023-01-09T20:00:38.526Z,3.88
2023-01-09T20:03:05.139Z,3.88
2023-01-09T20:05:33.114Z,3.86
2023-01-09T20:08:00.130Z,3.86
2023-01-09T20:10:26.763Z,3.85
2023-01-09T20:12:53.461Z,3.84
2023-01-09T20:15:20.229Z,3.85
2023-01-09T20:17:46.857Z,3.89
2023-01-09T20:20:13.804Z,3.88
2023-01-09T20:22:40.590Z,3.88
2023-01-09T20:25:10.386Z,3.88
2023-01-09T20:27:37.165Z,3.89
2023-01-09T20:30:04.293Z,3.89
2023-01-09T20:32:32.462Z,3.90
2023-01-09T20:34:59.195Z,3.85
2023-01-09T20:37:26.029Z,3.87
2023-01-09T20:39:53.274Z,3.89
2023-01-09T20:42:20.084Z,3.87
2023-01-09T20:44:47.468Z,3.84
2023-01-09T20:47:14.220Z,3.84
2023-01-09T20:49:40.997Z,3.83
2023-01-09T20:52:07.853Z,3.82
2023-01-09T20:54:35.938Z,3.78
2023-01-09T20:57:02.684Z,3.80
2023-01-09T20:59:29.486Z,3.80
2023-01-09T21:01:56.158Z,3.82
2023-01-09T21:04:22.992Z,3.83
2023-01-09T21:06:50.438Z,3.87
2023-01-09T21:09:17.635Z,3.82
2023-01-09T21:11:44.263Z,3.82
2023-01-09T21:14:10.905Z,3.80
2023-01-09T21:16:37.648Z,3.77
2023-01-09T21:19:05.102Z,3.74
2023-01-09T21:21:31.931Z,3.73
2023-01-09T21:24:00.709Z,3.67
2023-01-09T21:26:30.614Z,3.67
2023-01-09T21:29:00.158Z,3.63
2023-01-09T21:31:34.161Z,3.61
2023-01-09T21:34:04.844Z,3.54
2023-01-09T21:36:31.855Z,3.52
2023-01-09T21:39:00.105Z,3.53
2023-01-09T21:41:45.495Z,3.54
2023-01-09T21:44:32.031Z,3.60
2023-01-09T21:47:00.918Z,3.63
2023-01-09T21:49:30.946Z,3.69
2023-01-09T21:51:58.451Z,3.75
2023-01-09T21:54:25.259Z,3.78
2023-01-09T21:56:52.844Z,3.79
2023-01-09T21:59:20.246Z,3.83
2023-01-09T22:01:49.241Z,3.86
2023-01-09T22:04:17.730Z,3.89
2023-01-09T22:06:44.595Z,3.92
2023-01-09T22:09:11.724Z,3.89
2023-01-09T22:11:39.394Z,3.87
2023-01-09T22:14:06.555Z,3.91
2023-01-09T22:16:34.018Z,3.93
2023-01-09T22:19:00.968Z,3.93
2023-01-09T22:21:27.723Z,3.96
2023-01-09T22:23:54.439Z,3.95
2023-01-09T22:26:21.649Z,3.93
2023-01-09T22:28:49.398Z,3.95
2023-01-09T22:31:21.920Z,3.95
2023-01-09T22:33:53.511Z,3.95
2023-01-09T22:36:20.812Z,3.91
2023-01-09T22:38:47.863Z,3.89
2023-01-09T22:41:14.856Z,3.84
2023-01-09T22:43:41.640Z,3.81
2023-01-09T22:46:11.552Z,3.75
2023-01-09T22:48:39.053Z,3.71
2023-01-09T22:51:15.700Z,3.72
2023-01-09T22:53:43.501Z,3.71
2023-01-09T22:56:13.544Z,3.69
2023-01-09T22:58:40.222Z,3.66
2023-01-09T23:01:09.626Z,3.65
2023-01-09T23:03:36.268Z,3.61
2023-01-09T23:06:06.006Z,3.56
2023-01-09T23:08:34.123Z,3.53
2023-01-09T23:11:02.010Z,3.46
2023-01-09T23:13:28.649Z,3.40
2023-01-09T23:15:55.618Z,3.37
2023-01-09T23:18:22.456Z,3.34
2023-01-09T23:20:57.054Z,3.32
2023-01-09T23:23:25.426Z,3.29
2023-01-09T23:25:56.942Z,3.29
2023-01-09T23:28:25.165Z,3.30
2023-01-09T23:30:52.505Z,3.27
2023-01-09T23:33:21.330Z,3.23
2023-01-09T23:35:48.179Z,3.13
2023-01-09T23:38:15.442Z,3.08
2023-01-09T23:40:42.462Z,3.04
2023-01-09T23:43:13.544Z,2.93
2023-01-09T23:45:43.231Z,2.88
2023-01-09T23:48:12.719Z,2.81
2023-01-09T23:50:42.379Z,2.79
2023-01-09T23:53:09.206Z,2.70
2023-01-09T23:55:37.221Z,2.61
2023-01-09T23:58:04.116Z,2.48
